Time;durP1;ratioP1;P1;durP2;ratioP2;P2;SDS_P1;SDS_P2;PMS_P1;PMS_P2;Temp;Humidity;BMP_temperature;BMP_pressure;BME280_temperature;BME280_humidity;BME280_pressure;Samples;Min_cycle;Max_cycle;Signal;HPM_P1;HPM_P2
2021/03/31 00:01:52;;;;;;;8.07;2.65;;;7.90;99.90;;;;;;5070455;28;20082;-67
2021/03/31 00:04:57;;;;;;;9.73;3.30;;;8.10;99.90;;;;;;5069634;28;20036;-67
2021/03/31 00:07:48;;;;;;;9.75;2.70;;;8.30;99.90;;;;;;5070381;28;20398;-67
2021/03/31 00:10:43;;;;;;;7.00;3.05;;;8.10;99.90;;;;;;5069697;28;20029;-66
2021/03/31 00:13:46;;;;;;;12.55;3.15;;;8.00;99.90;;;;;;5069620;28;20075;-67
2021/03/31 00:17:04;;;;;;;6.50;2.72;;;8.00;99.90;;;;;;4988189;28;20555;-66
2021/03/31 00:20:14;;;;;;;6.55;2.47;;;7.90;99.90;;;;;;5049597;28;20095;-67
2021/03/31 00:23:21;;;;;;;9.05;3.00;;;7.90;99.90;;;;;;5064030;28;20043;-67
2021/03/31 00:26:16;;;;;;;8.63;3.08;;;7.70;99.90;;;;;;5069270;28;20482;-66
2021/03/31 00:29:09;;;;;;;9.95;2.95;;;7.60;99.90;;;;;;5049747;28;20394;-66
2021/03/31 00:32:12;;;;;;;6.03;2.55;;;7.60;99.90;;;;;;5065586;28;20108;-67
2021/03/31 00:34:58;;;;;;;8.20;2.90;;;7.70;99.90;;;;;;5054133;28;20036;-67
2021/03/31 00:38:01;;;;;;;7.32;3.42;;;7.60;99.90;;;;;;5069938;28;20043;-66
2021/03/31 00:40:56;;;;;;;7.82;3.95;;;7.40;99.90;;;;;;5068275;28;20168;-66
2021/03/31 00:43:59;;;;;;;12.10;3.97;;;7.30;99.90;;;;;;5069491;28;20070;-66
2021/03/31 00:47:04;;;;;;;7.97;2.63;;;7.30;99.90;;;;;;5081607;28;20379;-67
2021/03/31 00:50:16;;;;;;;10.35;4.90;;;7.40;99.90;;;;;;5070583;28;20067;-66
2021/03/31 00:53:18;;;;;;;13.57;6.25;;;7.50;99.90;;;;;;5067115;28;20036;-67
2021/03/31 00:56:10;;;;;;;14.02;5.80;;;7.50;99.90;;;;;;5072621;28;20036;-67
2021/03/31 00:58:56;;;;;;;10.73;4.07;;;7.40;99.90;;;;;;5073199;28;20068;-67
2021/03/31 01:01:49;;;;;;;8.77;3.90;;;7.40;99.90;;;;;;5071327;28;20060;-66
2021/03/31 01:04:39;;;;;;;8.32;3.70;;;7.40;99.90;;;;;;5088413;28;20375;-66
2021/03/31 01:07:54;;;;;;;8.40;3.53;;;7.40;99.90;;;;;;5058709;28;20115;-67
2021/03/31 01:10:47;;;;;;;5.97;3.13;;;7.30;99.90;;;;;;5072420;28;20032;-66
2021/03/31 01:14:30;;;;;;;6.03;3.15;;;7.30;99.90;;;;;;5010226;28;20046;-67
2021/03/31 01:17:29;;;;;;;8.38;2.90;;;7.30;99.90;;;;;;5010625;28;20119;-66
2021/03/31 01:20:25;;;;;;;12.43;3.35;;;7.30;99.90;;;;;;5010281;28;20038;-67
2021/03/31 01:23:33;;;;;;;10.40;3.55;;;7.20;99.90;;;;;;4993353;28;20048;-67
2021/03/31 01:26:52;;;;;;;8.15;2.70;;;7.30;99.90;;;;;;5009581;28;20053;-67
2021/03/31 01:30:19;;;;;;;8.55;3.65;;;7.20;99.90;;;;;;4997568;28;20034;-67
2021/03/31 01:34:00;;;;;;;7.63;3.33;;;7.20;99.90;;;;;;5010597;28;20396;-66
2021/03/31 01:37:18;;;;;;;8.85;3.20;;;7.10;99.90;;;;;;4990193;28;20042;-66
2021/03/31 01:40:26;;;;;;;7.60;3.50;;;7.10;99.90;;;;;;4988834;28;20042;-66
2021/03/31 01:43:32;;;;;;;10.27;4.10;;;7.10;99.90;;;;;;4989866;28;20042;-67
2021/03/31 01:46:39;;;;;;;9.00;4.18;;;7.00;99.90;;;;;;4978524;28;20104;-66
2021/03/31 01:49:39;;;;;;;9.02;3.53;;;7.00;99.90;;;;;;5034328;28;20041;-66
2021/03/31 01:52:56;;;;;;;7.03;3.85;;;6.90;99.90;;;;;;5007213;28;20594;-67
2021/03/31 01:56:00;;;;;;;6.95;3.67;;;6.90;99.90;;;;;;5042647;28;20132;-67
2021/03/31 01:58:53;;;;;;;10.68;3.92;;;6.90;99.90;;;;;;5052977;28;20040;-66
2021/03/31 02:01:58;;;;;;;10.13;5.00;;;6.80;99.90;;;;;;5086928;28;20064;-67
2021/03/31 02:05:07;;;;;;;10.00;4.25;;;6.70;99.90;;;;;;5060874;28;20029;-67
2021/03/31 02:08:13;;;;;;;9.40;4.43;;;6.70;99.90;;;;;;5069093;28;20025;-66
2021/03/31 02:11:19;;;;;;;10.15;5.18;;;6.60;99.90;;;;;;5069498;28;20077;-66
2021/03/31 02:14:23;;;;;;;10.10;4.43;;;6.50;99.90;;;;;;5069868;28;20115;-67
2021/03/31 02:17:29;;;;;;;9.68;4.60;;;6.40;99.90;;;;;;5070276;28;20063;-66
2021/03/31 02:20:35;;;;;;;11.02;4.80;;;6.50;99.90;;;;;;5069623;28;20049;-66
2021/03/31 02:23:41;;;;;;;11.52;4.82;;;6.40;99.90;;;;;;5069215;28;20036;-67
2021/03/31 02:26:46;;;;;;;10.13;4.63;;;6.40;99.90;;;;;;5069392;28;20778;-66
2021/03/31 02:29:31;;;;;;;8.15;3.95;;;6.40;99.90;;;;;;5067511;28;20083;-66
2021/03/31 02:32:20;;;;;;;9.95;4.68;;;6.50;99.90;;;;;;5086572;28;20093;-66
2021/03/31 02:35:06;;;;;;;10.05;4.57;;;6.40;99.90;;;;;;5071055;28;20142;-66
2021/03/31 02:37:54;;;;;;;10.27;5.35;;;6.50;99.90;;;;;;5071062;28;20075;-66
2021/03/31 02:40:40;;;;;;;11.38;5.82;;;6.50;99.90;;;;;;5052675;28;20036;-66
2021/03/31 02:43:25;;;;;;;15.73;5.07;;;6.40;99.90;;;;;;5086534;28;20052;-66
2021/03/31 02:46:20;;;;;;;13.38;5.47;;;6.40;99.90;;;;;;5086540;28;20067;-67
2021/03/31 02:49:07;;;;;;;8.10;4.78;;;6.30;99.90;;;;;;5070928;28;20040;-66
2021/03/31 02:51:52;;;;;;;9.50;5.18;;;6.30;99.90;;;;;;5085677;28;20036;-67
2021/03/31 02:54:36;;;;;;;12.05;5.25;;;6.20;99.90;;;;;;5050484;28;20037;-67
2021/03/31 02:57:23;;;;;;;13.82;5.03;;;6.20;99.90;;;;;;5050797;28;20116;-66
2021/03/31 03:00:10;;;;;;;8.77;4.50;;;6.10;99.90;;;;;;5035326;28;20071;-67
2021/03/31 03:02:57;;;;;;;11.38;4.90;;;6.10;99.90;;;;;;5066185;28;20044;-66
2021/03/31 03:05:58;;;;;;;9.63;5.13;;;6.10;99.90;;;;;;5050473;28;20074;-66
2021/03/31 03:08:42;;;;;;;9.20;4.78;;;6.10;99.90;;;;;;5067320;28;20393;-66
2021/03/31 03:11:26;;;;;;;8.13;4.53;;;6.10;99.90;;;;;;5070416;28;20093;-66
2021/03/31 03:14:11;;;;;;;9.55;5.30;;;6.10;99.90;;;;;;5086201;28;20078;-66
2021/03/31 03:16:55;;;;;;;9.88;5.15;;;6.10;99.90;;;;;;5086116;28;20045;-66
2021/03/31 03:19:40;;;;;;;11.77;5.80;;;6.10;99.90;;;;;;5055262;28;20036;-66
2021/03/31 03:22:38;;;;;;;16.08;6.63;;;6.10;99.90;;;;;;5063866;28;20032;-66
2021/03/31 03:25:25;;;;;;;9.88;5.03;;;6.00;99.90;;;;;;5069819;28;20063;-66
2021/03/31 03:28:10;;;;;;;11.35;6.40;;;6.00;99.90;;;;;;5070360;28;20628;-66
2021/03/31 03:30:57;;;;;;;13.30;6.18;;;5.80;99.90;;;;;;5085584;28;20059;-66
2021/03/31 03:34:06;;;;;;;18.10;6.43;;;5.80;99.90;;;;;;5068690;28;20071;-66
2021/03/31 03:37:10;;;;;;;9.85;5.85;;;5.80;99.90;;;;;;5069626;28;20032;-66
2021/03/31 03:39:54;;;;;;;11.27;5.70;;;5.70;99.90;;;;;;5084932;28;20079;-67
2021/03/31 03:42:39;;;;;;;13.93;5.50;;;5.70;99.90;;;;;;5038120;28;20071;-66
2021/03/31 03:45:25;;;;;;;13.70;5.90;;;5.70;99.90;;;;;;5038001;28;20036;-66
2021/03/31 03:48:30;;;;;;;11.00;6.03;;;5.60;99.90;;;;;;5069905;28;20051;-66
2021/03/31 03:51:23;;;;;;;12.50;5.90;;;5.60;99.90;;;;;;5065134;28;20067;-66
2021/03/31 03:54:09;;;;;;;30.10;13.93;;;5.60;99.90;;;;;;5049445;28;20378;-66
2021/03/31 03:56:53;;;;;;;26.83;12.75;;;5.60;99.90;;;;;;5065413;28;20573;-66
2021/03/31 03:59:38;;;;;;;23.20;10.98;;;5.60;99.90;;;;;;5031953;28;20363;-67
2021/03/31 04:02:35;;;;;;;21.77;10.27;;;5.60;99.90;;;;;;5050199;28;20414;-66
2021/03/31 04:05:20;;;;;;;19.83;8.65;;;5.70;99.90;;;;;;5065000;28;20119;-66
2021/03/31 04:08:05;;;;;;;18.30;8.43;;;5.70;99.90;;;;;;5069710;28;20048;-67
2021/03/31 04:10:55;;;;;;;14.32;7.05;;;5.60;99.90;;;;;;5085195;28;20032;-66
2021/03/31 04:13:39;;;;;;;14.25;6.22;;;5.50;99.90;;;;;;5085463;28;20101;-67
2021/03/31 04:16:47;;;;;;;11.20;6.65;;;5.40;99.90;;;;;;5078472;28;20041;-67
2021/03/31 04:19:39;;;;;;;14.80;7.38;;;5.40;99.90;;;;;;5070145;28;20060;-67
2021/03/31 04:22:23;;;;;;;11.38;6.30;;;5.30;99.90;;;;;;5089051;28;20097;-67
2021/03/31 04:25:16;;;;;;;12.50;7.00;;;5.30;99.90;;;;;;5059152;28;20212;-67
2021/03/31 04:28:06;;;;;;;12.73;7.55;;;5.30;99.90;;;;;;5073859;28;20470;-67
2021/03/31 04:30:52;;;;;;;13.50;7.05;;;5.30;99.90;;;;;;5088406;28;20035;-67
2021/03/31 04:33:54;;;;;;;11.05;6.43;;;5.20;99.90;;;;;;5055275;28;20481;-67
2021/03/31 04:36:38;;;;;;;15.70;7.05;;;5.20;99.90;;;;;;5058048;28;20055;-66
2021/03/31 04:39:23;;;;;;;13.95;7.30;;;5.20;99.90;;;;;;5079083;28;20024;-66
2021/03/31 04:42:12;;;;;;;15.02;7.18;;;5.20;99.90;;;;;;5073053;28;20086;-66
2021/03/31 04:44:56;;;;;;;11.85;6.78;;;5.20;99.90;;;;;;5088341;28;20094;-67
2021/03/31 04:47:40;;;;;;;12.85;6.45;;;5.20;99.90;;;;;;5073433;28;20024;-67
2021/03/31 04:50:25;;;;;;;13.45;6.35;;;5.20;99.90;;;;;;5072377;28;20359;-66
2021/03/31 04:53:09;;;;;;;11.48;5.78;;;5.00;99.90;;;;;;5086185;28;20033;-67
2021/03/31 04:55:53;;;;;;;11.55;6.03;;;5.00;99.90;;;;;;5069473;28;20119;-66
2021/03/31 04:58:38;;;;;;;10.77;5.53;;;5.10;99.90;;;;;;5088077;28;20044;-67
2021/03/31 05:01:22;;;;;;;14.23;6.75;;;5.20;99.90;;;;;;5054685;28;20036;-67
2021/03/31 05:04:07;;;;;;;14.30;6.25;;;5.10;99.90;;;;;;5073062;28;20055;-67
2021/03/31 05:06:51;;;;;;;9.45;5.32;;;5.00;99.90;;;;;;5087741;28;20037;-67
2021/03/31 05:09:56;;;;;;;11.52;5.90;;;5.10;99.90;;;;;;5061057;28;20032;-66
2021/03/31 05:12:42;;;;;;;15.05;6.00;;;5.10;99.90;;;;;;5072574;28;20107;-67
2021/03/31 05:15:26;;;;;;;11.80;6.07;;;5.10;99.90;;;;;;5055182;28;20230;-67
2021/03/31 05:18:10;;;;;;;13.95;5.88;;;5.10;99.90;;;;;;5074705;28;20036;-67
2021/03/31 05:21:14;;;;;;;17.67;6.45;;;5.20;99.90;;;;;;5078131;28;20610;-67
2021/03/31 05:23:59;;;;;;;19.52;6.05;;;5.20;99.90;;;;;;5087223;28;20055;-67
2021/03/31 05:26:43;;;;;;;11.15;5.85;;;5.20;99.90;;;;;;5086414;28;20037;-67
2021/03/31 05:29:47;;;;;;;12.65;5.85;;;5.20;99.90;;;;;;5080887;28;20508;-66
2021/03/31 05:32:31;;;;;;;10.20;5.50;;;5.30;99.90;;;;;;5067134;28;20063;-67
2021/03/31 05:35:16;;;;;;;13.45;6.32;;;5.30;99.90;;;;;;5066872;28;20078;-67
2021/03/31 05:38:21;;;;;;;14.15;6.20;;;5.30;99.90;;;;;;5067636;28;20033;-67
2021/03/31 05:41:05;;;;;;;11.02;6.28;;;5.30;99.90;;;;;;5053073;28;20032;-67
2021/03/31 05:44:11;;;;;;;13.60;6.65;;;5.30;99.90;;;;;;5081843;28;20028;-67
2021/03/31 05:46:59;;;;;;;12.07;5.60;;;5.30;99.90;;;;;;5072177;28;20063;-66
2021/03/31 05:49:45;;;;;;;12.00;5.97;;;5.20;99.90;;;;;;5056302;28;20147;-66
2021/03/31 05:52:29;;;;;;;13.80;6.35;;;5.20;99.90;;;;;;5083668;28;20505;-66
2021/03/31 05:55:34;;;;;;;14.10;8.90;;;5.20;99.90;;;;;;5068105;28;20028;-66
2021/03/31 05:58:39;;;;;;;11.88;7.22;;;5.30;99.90;;;;;;5074810;28;20050;-66
2021/03/31 06:01:33;;;;;;;12.50;7.05;;;5.40;99.90;;;;;;5086974;28;20036;-67
2021/03/31 06:04:18;;;;;;;11.50;5.70;;;5.50;99.90;;;;;;5071604;28;20028;-67
2021/03/31 06:07:03;;;;;;;11.32;6.78;;;5.60;99.90;;;;;;5086075;28;20086;-67
2021/03/31 06:10:08;;;;;;;8.60;5.75;;;5.60;99.90;;;;;;5066375;28;20102;-67
2021/03/31 06:13:00;;;;;;;11.40;5.65;;;5.80;99.90;;;;;;5084445;28;20036;-67
2021/03/31 06:15:57;;;;;;;12.27;5.75;;;5.90;99.90;;;;;;5084820;28;20058;-67
2021/03/31 06:18:41;;;;;;;12.75;6.28;;;5.90;99.90;;;;;;5084309;28;20036;-67
2021/03/31 06:21:25;;;;;;;13.00;6.18;;;6.00;99.90;;;;;;5069612;28;20028;-67
2021/03/31 06:24:25;;;;;;;17.85;9.05;;;6.10;99.90;;;;;;5082528;28;20569;-67
2021/03/31 06:27:10;;;;;;;16.05;9.05;;;6.30;99.90;;;;;;5071583;28;20121;-67
2021/03/31 06:30:05;;;;;;;15.05;7.95;;;6.50;99.90;;;;;;5069008;28;20039;-67
2021/03/31 06:32:55;;;;;;;10.70;6.07;;;6.80;99.90;;;;;;5074913;28;20028;-68
2021/03/31 06:35:39;;;;;;;10.68;5.85;;;7.00;99.90;;;;;;5074610;28;20032;-67
2021/03/31 06:38:32;;;;;;;11.63;5.45;;;7.20;99.90;;;;;;5081819;28;20052;-67
2021/03/31 06:44:23;;;;;;;13.43;6.78;;;7.60;99.90;;;;;;5067074;28;20038;-68
2021/03/31 06:47:22;;;;;;;16.95;11.02;;;7.80;99.90;;;;;;5065410;28;20038;-67
2021/03/31 06:50:10;;;;;;;19.80;10.57;;;7.80;99.90;;;;;;5068475;28;20439;-65
2021/03/31 06:53:01;;;;;;;13.65;8.20;;;7.90;99.90;;;;;;5083140;28;20032;-65
2021/03/31 06:55:58;;;;;;;14.18;8.10;;;8.10;99.90;;;;;;5083718;28;20044;-66
2021/03/31 06:58:42;;;;;;;17.85;10.85;;;8.40;99.90;;;;;;5063667;28;20035;-65
2021/03/31 07:01:31;;;;;;;17.95;11.93;;;8.60;99.90;;;;;;5068167;28;20089;-65
2021/03/31 07:04:16;;;;;;;19.13;9.27;;;8.80;99.90;;;;;;5036789;28;20043;-65
2021/03/31 07:07:10;;;;;;;15.20;6.63;;;9.00;99.90;;;;;;5068639;28;20078;-65
2021/03/31 07:10:16;;;;;;;16.75;8.40;;;9.00;99.90;;;;;;5050283;28;20389;-66
2021/03/31 07:13:39;;;;;;;15.73;9.45;;;9.00;99.90;;;;;;5058949;28;20402;-66
2021/03/31 07:16:45;;;;;;;17.85;9.88;;;9.40;99.90;;;;;;5053915;28;20110;-66
2021/03/31 07:19:39;;;;;;;21.55;11.90;;;9.80;99.90;;;;;;5051148;28;20081;-66
2021/03/31 07:22:24;;;;;;;18.73;11.45;;;10.10;99.90;;;;;;5069199;28;20035;-65
2021/03/31 07:25:09;;;;;;;15.60;10.35;;;10.40;99.90;;;;;;5068326;28;20512;-65
2021/03/31 07:27:57;;;;;;;18.08;8.93;;;10.60;99.90;;;;;;5069727;28;20078;-66
2021/03/31 07:30:42;;;;;;;21.40;9.80;;;10.80;99.90;;;;;;5089162;28;20499;-66
2021/03/31 07:34:08;;;;;;;14.75;8.98;;;10.90;99.90;;;;;;5067726;28;20564;-66
2021/03/31 07:36:54;;;;;;;14.25;7.70;;;11.00;99.90;;;;;;5050615;28;20218;-66
2021/03/31 07:39:39;;;;;;;15.60;7.63;;;11.30;99.90;;;;;;5050932;28;20066;-66
2021/03/31 07:42:23;;;;;;;16.30;7.00;;;11.60;99.90;;;;;;5068726;28;20031;-66
2021/03/31 07:45:10;;;;;;;12.85;7.28;;;11.90;99.90;;;;;;5076319;28;20039;-66
2021/03/31 07:47:55;;;;;;;14.60;7.85;;;12.30;99.90;;;;;;5082197;28;20044;-66
2021/03/31 07:50:40;;;;;;;14.82;8.10;;;12.70;99.90;;;;;;5064952;28;20040;-66
2021/03/31 07:53:24;;;;;;;13.65;7.25;;;13.10;99.90;;;;;;5044809;28;20086;-66
2021/03/31 07:56:14;;;;;;;20.95;10.23;;;13.70;99.90;;;;;;5066405;28;20047;-66
2021/03/31 07:59:01;;;;;;;19.33;9.35;;;14.40;99.90;;;;;;5088174;28;20070;-66
2021/03/31 08:01:53;;;;;;;20.55;9.68;;;15.10;99.90;;;;;;5071230;28;20036;-67
2021/03/31 08:04:38;;;;;;;15.45;8.45;;;15.80;99.90;;;;;;5071871;28;20222;-67
2021/03/31 08:07:29;;;;;;;16.05;8.00;;;16.50;98.20;;;;;;5054363;28;20067;-67
2021/03/31 08:10:36;;;;;;;15.75;8.43;;;16.80;92.30;;;;;;5055232;28;20508;-67
2021/03/31 08:13:41;;;;;;;14.80;8.43;;;17.50;89.50;;;;;;5078261;28;20082;-67
2021/03/31 08:16:34;;;;;;;14.38;8.45;;;18.00;79.80;;;;;;5071387;28;20051;-68
2021/03/31 08:19:22;;;;;;;16.73;8.02;;;18.30;76.00;;;;;;5053548;28;20055;-67
2021/03/31 08:22:22;;;;;;;14.20;8.38;;;18.70;71.00;;;;;;5076731;28;20043;-67
2021/03/31 08:25:25;;;;;;;16.80;8.73;;;18.70;68.50;;;;;;5074194;28;20055;-67
2021/03/31 08:28:10;;;;;;;13.48;7.70;;;18.80;67.90;;;;;;5053505;28;20409;-67
2021/03/31 08:31:17;;;;;;;13.35;8.18;;;19.10;68.00;;;;;;5051669;28;20042;-67
2021/03/31 08:34:02;;;;;;;13.32;8.57;;;19.70;64.10;;;;;;5053183;28;20144;-68
2021/03/31 08:36:46;;;;;;;14.27;9.07;;;20.20;62.30;;;;;;5072447;28;20055;-67
2021/03/31 08:39:31;;;;;;;14.35;8.23;;;20.10;60.80;;;;;;5071041;28;20028;-67
2021/03/31 08:42:16;;;;;;;12.55;8.18;;;20.50;61.80;;;;;;5071739;28;20082;-68
2021/03/31 08:45:05;;;;;;;14.93;8.05;;;20.90;59.60;;;;;;5073775;28;20044;-67
2021/03/31 08:48:10;;;;;;;15.68;7.95;;;21.00;58.70;;;;;;5067676;28;20056;-68
2021/03/31 08:51:16;;;;;;;12.98;8.18;;;20.90;56.00;;;;;;5068241;28;20373;-67
2021/03/31 08:54:14;;;;;;;12.57;8.40;;;21.10;57.50;;;;;;5071139;28;20627;-67
2021/03/31 08:57:00;;;;;;;11.98;7.55;;;21.30;54.50;;;;;;5086044;28;20036;-67
2021/03/31 08:59:48;;;;;;;14.18;7.97;;;21.60;54.90;;;;;;5057717;28;20051;-68
2021/03/31 09:02:41;;;;;;;16.25;8.18;;;21.80;54.30;;;;;;5087475;28;20505;-68
2021/03/31 09:05:25;;;;;;;17.27;8.38;;;21.90;53.00;;;;;;5052238;28;20102;-68
2021/03/31 09:08:30;;;;;;;13.23;8.32;;;21.70;53.30;;;;;;5071497;28;20066;-68
2021/03/31 09:11:35;;;;;;;11.70;7.43;;;21.70;53.40;;;;;;5068183;28;20112;-67
2021/03/31 09:14:36;;;;;;;15.35;8.23;;;21.80;54.60;;;;;;5072611;28;20071;-67
2021/03/31 09:17:23;;;;;;;15.40;7.80;;;22.30;52.40;;;;;;5067241;28;20555;-67
2021/03/31 09:20:18;;;;;;;16.00;8.38;;;22.50;52.30;;;;;;5086795;28;20033;-67
2021/03/31 09:23:03;;;;;;;14.88;7.75;;;22.60;51.90;;;;;;5087069;28;20144;-67
2021/03/31 09:26:02;;;;;;;10.77;7.28;;;23.20;49.90;;;;;;5083076;28;20437;-67
2021/03/31 09:28:46;;;;;;;10.65;6.65;;;23.20;50.30;;;;;;5045388;28;20035;-68
2021/03/31 09:31:31;;;;;;;14.48;7.55;;;23.10;49.10;;;;;;5055157;28;20516;-68
2021/03/31 09:34:16;;;;;;;15.00;7.47;;;23.00;49.90;;;;;;5071899;28;20158;-67
2021/03/31 09:37:03;;;;;;;11.98;6.47;;;23.50;49.50;;;;;;5071117;28;20086;-68
2021/03/31 09:39:49;;;;;;;13.60;7.30;;;24.10;48.60;;;;;;5067447;28;20037;-67
2021/03/31 09:42:56;;;;;;;13.75;6.70;;;23.70;47.30;;;;;;5066956;28;20111;-67
2021/03/31 09:46:00;;;;;;;11.23;6.45;;;23.80;49.50;;;;;;5061622;28;20443;-67
2021/03/31 09:49:05;;;;;;;8.35;4.95;;;24.40;48.80;;;;;;5074156;28;20078;-66
2021/03/31 09:52:13;;;;;;;9.93;5.50;;;25.20;48.30;;;;;;5069309;28;20041;-67
2021/03/31 09:55:18;;;;;;;10.07;6.05;;;24.90;45.20;;;;;;5065408;28;20119;-67
2021/03/31 09:58:04;;;;;;;13.93;5.35;;;24.50;45.40;;;;;;5083655;28;20429;-67
2021/03/31 10:00:49;;;;;;;12.63;5.95;;;25.00;44.40;;;;;;5065934;28;20153;-67
2021/03/31 10:03:55;;;;;;;11.73;5.97;;;24.70;44.00;;;;;;5061105;28;20081;-68
2021/03/31 10:07:09;;;;;;;9.65;5.40;;;24.70;45.20;;;;;;5054027;28;20047;-68
2021/03/31 10:09:53;;;;;;;12.23;6.00;;;24.70;44.30;;;;;;5083157;28;20035;-67
2021/03/31 10:12:37;;;;;;;10.88;6.05;;;24.40;44.60;;;;;;5069565;28;20021;-67
2021/03/31 10:15:26;;;;;;;11.82;6.07;;;24.50;45.50;;;;;;5070432;28;20044;-67
2021/03/31 10:18:32;;;;;;;9.75;5.30;;;24.60;44.10;;;;;;5068331;28;20032;-67
2021/03/31 10:21:32;;;;;;;10.88;5.80;;;25.00;44.90;;;;;;5085744;28;20032;-67
2021/03/31 10:24:34;;;;;;;12.20;5.43;;;25.40;44.60;;;;;;5085157;28;20051;-68
2021/03/31 10:27:45;;;;;;;10.35;5.35;;;25.90;42.40;;;;;;5079791;28;20083;-68
2021/03/31 10:30:31;;;;;;;12.35;4.88;;;25.50;43.00;;;;;;5065273;28;20076;-67
2021/03/31 10:33:16;;;;;;;10.90;4.93;;;25.00;44.50;;;;;;5065081;28;20075;-67
2021/03/31 10:36:01;;;;;;;11.60;5.30;;;24.70;45.10;;;;;;5082904;28;20039;-67
2021/03/31 10:39:11;;;;;;;8.88;5.25;;;24.30;44.00;;;;;;5042306;28;20577;-68
2021/03/31 10:54:12;;;;;;;10.53;5.10;;;23.00;47.50;;;;;;5084607;28;20501;-67
2021/03/31 10:57:07;;;;;;;12.88;4.53;;;23.00;46.90;;;;;;5083259;28;20032;-68
2021/03/31 10:59:52;;;;;;;10.95;4.57;;;22.80;47.60;;;;;;5067635;28;20036;-67
2021/03/31 11:02:36;;;;;;;11.35;4.78;;;22.90;47.00;;;;;;5083301;28;20560;-67
2021/03/31 11:05:20;;;;;;;10.05;4.22;;;22.90;46.30;;;;;;5066670;28;20028;-67
2021/03/31 11:08:06;;;;;;;8.05;4.13;;;22.80;46.80;;;;;;5066876;28;20343;-67
2021/03/31 11:10:51;;;;;;;8.25;3.83;;;22.80;46.70;;;;;;5081538;28;20085;-66
2021/03/31 11:13:36;;;;;;;9.45;4.03;;;22.60;47.60;;;;;;5051275;28;20028;-67
2021/03/31 11:16:21;;;;;;;9.98;3.50;;;22.60;47.00;;;;;;5068032;28;20089;-67
2021/03/31 11:28:22;;;;;;;;;;;22.40;49.10;;;;;;5068297;28;20063;-67
2021/03/31 11:31:06;;;;;;;13.15;5.85;;;22.60;51.30;;;;;;5081422;28;19931;-67
2021/03/31 11:33:53;;;;;;;12.38;5.25;;;22.70;48.60;;;;;;5065069;28;20075;-66
2021/03/31 11:36:37;;;;;;;13.07;4.82;;;22.60;48.50;;;;;;5072686;28;20774;-67
2021/03/31 11:39:21;;;;;;;15.52;6.22;;;22.70;50.10;;;;;;5081650;28;20040;-67
2021/03/31 11:42:06;;;;;;;12.63;5.65;;;22.70;49.30;;;;;;5064770;28;20524;-67
2021/03/31 11:45:02;;;;;;;12.80;5.70;;;22.60;47.90;;;;;;5062802;28;20062;-67
2021/03/31 11:47:47;;;;;;;15.57;5.10;;;22.60;50.80;;;;;;5062954;28;20086;-67
2021/03/31 11:50:32;;;;;;;15.85;6.00;;;22.70;49.40;;;;;;5035431;28;20170;-67
2021/03/31 11:53:16;;;;;;;12.25;5.40;;;22.80;51.40;;;;;;5067061;28;20021;-67
2021/03/31 11:56:01;;;;;;;9.77;4.90;;;22.80;49.50;;;;;;5066789;28;20040;-67
2021/03/31 11:58:45;;;;;;;15.23;5.50;;;22.80;48.60;;;;;;5084133;28;20033;-67
2021/03/31 12:01:30;;;;;;;14.88;5.05;;;22.80;47.60;;;;;;5066074;28;20039;-67
2021/03/31 12:04:15;;;;;;;13.07;4.43;;;22.80;48.80;;;;;;5083835;28;20363;-67
2021/03/31 12:07:13;;;;;;;16.58;5.38;;;22.80;48.10;;;;;;5079362;28;20660;-67
2021/03/31 12:09:57;;;;;;;7.68;4.10;;;23.00;48.60;;;;;;5074418;28;20347;-66
2021/03/31 12:13:02;;;;;;;11.38;3.95;;;23.10;50.00;;;;;;5059334;28;20039;-66
2021/03/31 12:15:55;;;;;;;12.18;3.88;;;23.10;47.60;;;;;;5077064;28;20025;-67
2021/03/31 12:18:39;;;;;;;13.65;3.83;;;23.10;48.70;;;;;;5056788;28;20493;-66
2021/03/31 12:21:23;;;;;;;7.65;2.70;;;23.20;46.40;;;;;;5074330;28;20647;-67
2021/03/31 12:24:08;;;;;;;6.68;2.83;;;23.20;45.30;;;;;;5073499;28;20483;-67
2021/03/31 12:27:02;;;;;;;9.57;3.13;;;23.20;48.00;;;;;;5056115;28;20505;-67
2021/03/31 12:29:47;;;;;;;8.88;3.20;;;23.30;46.80;;;;;;5070028;28;20036;-67
2021/03/31 12:32:31;;;;;;;9.73;3.05;;;23.40;47.40;;;;;;5071949;28;20124;-67
2021/03/31 12:35:16;;;;;;;6.90;2.95;;;23.50;46.20;;;;;;5058493;28;20107;-67
2021/03/31 12:38:00;;;;;;;8.85;3.20;;;23.70;48.90;;;;;;5064976;28;20052;-66
2021/03/31 12:40:44;;;;;;;9.23;2.78;;;23.90;48.30;;;;;;5081721;28;20040;-67
2021/03/31 12:43:36;;;;;;;6.80;2.60;;;23.80;47.20;;;;;;5078046;28;20025;-68
2021/03/31 12:46:20;;;;;;;9.93;2.00;;;24.10;47.60;;;;;;5053819;28;20486;-66
2021/03/31 12:49:05;;;;;;;7.55;2.00;;;24.20;45.10;;;;;;5085332;28;20036;-67
2021/03/31 12:52:03;;;;;;;8.82;2.20;;;24.50;47.20;;;;;;5086344;28;20047;-67
2021/03/31 12:58:07;;;;;;;7.82;3.03;;;24.70;45.60;;;;;;5090384;28;20433;-67
2021/03/31 13:00:52;;;;;;;7.07;2.40;;;25.00;46.50;;;;;;5082947;28;20067;-66
2021/03/31 13:03:57;;;;;;;6.75;2.58;;;24.80;44.60;;;;;;5073223;28;20043;-67
2021/03/31 13:07:03;;;;;;;5.40;2.30;;;24.80;45.10;;;;;;5072064;28;20048;-67
2021/03/31 13:09:48;;;;;;;7.13;2.47;;;26.10;46.00;;;;;;5053285;28;20067;-67
2021/03/31 13:15:33;;;;;;;11.05;2.47;;;29.50;40.90;;;;;;5073244;28;20036;-67
2021/03/31 13:24:25;;;;;;;9.70;2.35;;;30.90;39.30;;;;;;5086480;28;20036;-67
2021/03/31 13:41:23;;;;;;;7.28;1.30;;;32.30;34.70;;;;;;5060353;28;20029;-67
2021/03/31 13:44:07;;;;;;;7.88;1.40;;;32.20;33.90;;;;;;5059405;28;20059;-68
2021/03/31 13:46:57;;;;;;;6.65;1.67;;;32.70;33.10;;;;;;5059610;28;20299;-68
2021/03/31 13:50:03;;;;;;;4.47;1.27;;;33.40;35.20;;;;;;5066121;28;20028;-68
2021/03/31 13:53:06;;;;;;;3.00;0.90;;;33.50;32.40;;;;;;5057767;28;20477;-67
2021/03/31 13:56:03;;;;;;;5.85;0.98;;;33.40;32.10;;;;;;5060527;28;20164;-68
2021/03/31 13:58:47;;;;;;;7.57;1.02;;;34.20;31.80;;;;;;5044888;28;20071;-67
2021/03/31 14:01:32;;;;;;;10.15;1.23;;;34.00;30.30;;;;;;5080394;28;20040;-68
2021/03/31 14:04:16;;;;;;;7.65;1.27;;;34.20;31.00;;;;;;5051342;28;20137;-68
2021/03/31 14:07:00;;;;;;;4.72;1.00;;;33.30;29.80;;;;;;5060190;28;20040;-67
2021/03/31 14:09:45;;;;;;;6.18;1.27;;;33.30;32.30;;;;;;5071533;28;20085;-68
2021/03/31 14:12:29;;;;;;;6.55;1.42;;;33.70;30.10;;;;;;5069380;28;20048;-68
2021/03/31 14:15:16;;;;;;;6.68;1.50;;;34.50;31.80;;;;;;5078736;28;20493;-68
2021/03/31 14:18:00;;;;;;;6.70;1.52;;;33.40;31.00;;;;;;5056833;28;20067;-68
2021/03/31 14:20:45;;;;;;;8.50;1.60;;;33.00;30.50;;;;;;5105155;28;20118;-68
2021/03/31 14:23:29;;;;;;;5.57;1.33;;;33.00;29.60;;;;;;5097045;28;20155;-68
2021/03/31 14:26:13;;;;;;;4.65;1.25;;;32.60;31.00;;;;;;5084134;28;20040;-67
2021/03/31 14:28:57;;;;;;;7.50;1.27;;;33.60;31.00;;;;;;5086589;28;20082;-68
2021/03/31 14:31:42;;;;;;;6.55;1.30;;;34.50;30.20;;;;;;5070804;28;20102;-68
2021/03/31 14:34:26;;;;;;;8.93;1.30;;;34.60;30.00;;;;;;5070335;28;20127;-67
2021/03/31 14:37:11;;;;;;;8.80;1.73;;;34.80;30.50;;;;;;5086152;28;20386;-67
2021/03/31 14:39:55;;;;;;;2.85;0.82;;;35.10;30.10;;;;;;5070204;28;20314;-67
2021/03/31 14:42:40;;;;;;;8.57;1.77;;;35.10;30.00;;;;;;5086473;28;20033;-67
2021/03/31 14:45:25;;;;;;;7.53;1.27;;;33.80;29.10;;;;;;5086198;28;20024;-68
2021/03/31 14:48:29;;;;;;;6.72;1.17;;;33.70;28.80;;;;;;5052516;28;20037;-68
2021/03/31 14:51:14;;;;;;;7.25;0.90;;;33.20;30.40;;;;;;5068983;28;20040;-67
2021/03/31 15:00:32;;;;;;;5.57;1.33;;;34.90;30.00;;;;;;5062575;28;20135;-67
2021/03/31 15:03:37;;;;;;;7.93;1.45;;;35.20;29.80;;;;;;5061942;28;20112;-67
2021/03/31 15:06:40;;;;;;;10.98;1.48;;;34.00;29.40;;;;;;5058993;28;20058;-66
2021/03/31 15:09:43;;;;;;;6.85;1.40;;;34.20;29.50;;;;;;5070615;28;20035;-67
2021/03/31 15:12:47;;;;;;;7.93;1.60;;;34.00;29.30;;;;;;5068271;28;20106;-67
2021/03/31 15:15:52;;;;;;;11.48;1.55;;;33.50;29.30;;;;;;5068936;28;20460;-67
2021/03/31 15:18:57;;;;;;;7.53;1.95;;;32.80;29.30;;;;;;5047335;28;20024;-67
2021/03/31 15:24:57;;;;;;;12.77;1.42;;;32.60;30.10;;;;;;5085690;28;20044;-67
2021/03/31 15:28:00;;;;;;;9.70;1.20;;;33.20;29.30;;;;;;5066858;28;20055;-67
2021/03/31 15:31:05;;;;;;;7.07;1.13;;;33.10;29.90;;;;;;5068586;28;20501;-67
2021/03/31 15:34:11;;;;;;;6.22;1.55;;;33.80;29.60;;;;;;5080742;28;20031;-67
2021/03/31 15:36:58;;;;;;;9.50;1.52;;;33.90;29.40;;;;;;5098182;28;20085;-67
2021/03/31 15:39:43;;;;;;;4.80;1.30;;;33.50;30.70;;;;;;5085532;28;20077;-68
2021/03/31 15:42:27;;;;;;;5.43;1.20;;;33.50;29.70;;;;;;5070366;28;20033;-68
2021/03/31 15:45:11;;;;;;;5.63;1.70;;;32.70;30.30;;;;;;5085711;28;20136;-67
2021/03/31 15:47:57;;;;;;;8.07;1.30;;;33.00;30.30;;;;;;5069090;28;20067;-68
2021/03/31 15:50:41;;;;;;;6.07;1.20;;;33.70;29.70;;;;;;5085376;28;20033;-67
2021/03/31 15:53:25;;;;;;;9.80;1.60;;;32.30;29.50;;;;;;5085233;28;20107;-67
2021/03/31 15:56:10;;;;;;;7.93;1.30;;;32.70;29.80;;;;;;5084751;28;20631;-68
2021/03/31 15:58:55;;;;;;;4.43;1.10;;;32.40;29.90;;;;;;5070021;28;20043;-67